createdAt,value
2023-03-02T00:01:50.728Z,11.80
2023-03-02T00:04:52.382Z,11.03
2023-03-02T00:07:39.436Z,10.97
2023-03-02T00:10:26.572Z,11.53
2023-03-02T00:13:13.856Z,11.50
2023-03-02T00:16:00.898Z,12.87
2023-03-02T00:18:47.921Z,11.70
2023-03-02T00:21:34.874Z,13.10
2023-03-02T00:24:21.983Z,11.57
2023-03-02T00:27:08.986Z,11.53
2023-03-02T00:29:56.802Z,11.67
2023-03-02T00:32:45.650Z,12.50
2023-03-02T00:35:40.654Z,12.03
2023-03-02T00:38:27.709Z,12.77
2023-03-02T00:41:16.487Z,11.53
2023-03-02T00:44:03.880Z,11.80
2023-03-02T00:46:50.925Z,12.07
2023-03-02T00:49:38.376Z,11.73
2023-03-02T00:52:25.613Z,13.23
2023-03-02T00:55:12.600Z,11.17
2023-03-02T00:57:59.569Z,14.03
2023-03-02T01:00:49.840Z,12.47
2023-03-02T01:03:37.749Z,15.40
2023-03-02T01:06:25.011Z,10.70
2023-03-02T01:09:12.474Z,11.70
2023-03-02T01:11:59.810Z,11.87
2023-03-02T01:14:49.073Z,12.53
2023-03-02T01:17:36.551Z,11.67
2023-03-02T01:20:23.559Z,11.57
2023-03-02T01:23:10.696Z,10.73
2023-03-02T01:25:57.873Z,11.03
2023-03-02T01:28:44.890Z,11.77
2023-03-02T01:31:31.967Z,11.40
2023-03-02T01:34:18.947Z,12.83
2023-03-02T01:37:05.923Z,15.07
2023-03-02T01:39:52.932Z,12.10
2023-03-02T01:42:47.340Z,10.77
2023-03-02T01:45:54.005Z,11.67
2023-03-02T01:49:03.449Z,11.77
2023-03-02T01:52:24.012Z,13.13
2023-03-02T01:55:14.876Z,14.10
2023-03-02T01:58:05.189Z,12.13
2023-03-02T02:00:53.107Z,13.37
2023-03-02T02:03:40.243Z,11.10
2023-03-02T02:06:38.732Z,11.43
2023-03-02T02:09:27.989Z,13.77
2023-03-02T02:12:19.898Z,11.90
2023-03-02T02:15:07.425Z,11.50
2023-03-02T02:17:55.598Z,12.27
2023-03-02T02:20:48.917Z,11.87
2023-03-02T02:24:03.801Z,11.83
2023-03-02T02:26:54.386Z,13.17
2023-03-02T02:29:46.620Z,12.13
2023-03-02T02:32:38.088Z,11.83
2023-03-02T02:35:30.084Z,11.93
2023-03-02T02:38:21.044Z,13.03
2023-03-02T02:41:18.063Z,11.57
2023-03-02T02:44:05.898Z,12.60
2023-03-02T02:46:53.178Z,12.73
2023-03-02T02:49:41.843Z,11.10
2023-03-02T02:52:29.499Z,11.50
2023-03-02T02:55:21.907Z,13.33
2023-03-02T02:58:25.232Z,13.23
2023-03-02T03:01:18.813Z,11.80
2023-03-02T03:04:06.782Z,11.37
2023-03-02T03:07:03.767Z,14.13
2023-03-02T03:10:17.977Z,11.70
2023-03-02T03:13:04.969Z,11.60
2023-03-02T03:15:51.969Z,13.20
2023-03-02T03:18:39.137Z,11.90
2023-03-02T03:21:26.197Z,11.37
2023-03-02T03:24:13.212Z,11.13
2023-03-02T03:27:01.489Z,12.20
2023-03-02T03:29:50.092Z,12.50
2023-03-02T03:32:39.257Z,13.23
2023-03-02T03:35:26.329Z,11.67
2023-03-02T03:38:13.599Z,12.90
2023-03-02T03:41:02.290Z,12.27
2023-03-02T03:43:50.339Z,14.70
2023-03-02T03:46:38.108Z,14.07
2023-03-02T03:49:25.783Z,13.87
2023-03-02T03:52:12.897Z,11.40
2023-03-02T03:55:01.726Z,12.00
2023-03-02T03:57:50.445Z,13.80
2023-03-02T04:00:37.487Z,14.23
2023-03-02T04:03:29.459Z,13.67
2023-03-02T04:06:18.940Z,14.07
2023-03-02T04:09:07.397Z,12.40
2023-03-02T04:11:55.679Z,12.90
2023-03-02T04:14:43.876Z,13.37
2023-03-02T04:17:31.859Z,12.83
2023-03-02T04:20:20.916Z,13.30
2023-03-02T04:23:10.949Z,12.53
2023-03-02T04:25:58.001Z,13.80
2023-03-02T04:28:45.169Z,14.10
2023-03-02T04:31:32.815Z,14.47
2023-03-02T04:34:21.142Z,13.13
2023-03-02T04:37:08.578Z,12.23
2023-03-02T04:39:55.728Z,15.80
2023-03-02T04:42:44.642Z,13.27
2023-03-02T04:45:31.883Z,13.57
2023-03-02T04:48:18.948Z,13.50
2023-03-02T04:51:06.146Z,13.97
2023-03-02T04:53:56.498Z,12.23
2023-03-02T04:56:43.476Z,13.97
2023-03-02T04:59:30.454Z,16.47
2023-03-02T05:02:17.555Z,14.73
2023-03-02T05:05:05.002Z,14.33
2023-03-02T05:07:52.818Z,13.23
2023-03-02T05:10:39.837Z,16.47
2023-03-02T05:13:27.808Z,13.93
2023-03-02T05:16:15.091Z,14.10
2023-03-02T05:19:04.516Z,16.07
2023-03-02T05:21:51.564Z,15.97
2023-03-02T05:24:38.534Z,14.80
2023-03-02T05:27:25.481Z,15.90
2023-03-02T05:30:13.079Z,15.67
2023-03-02T05:33:00.369Z,15.17
2023-03-02T05:35:48.444Z,18.47
2023-03-02T05:38:35.456Z,17.60
2023-03-02T05:41:22.621Z,13.53
2023-03-02T05:44:11.905Z,15.63
2023-03-02T05:46:58.936Z,16.93
2023-03-02T05:49:45.909Z,20.27
2023-03-02T05:52:32.848Z,21.77
2023-03-02T05:55:20.261Z,20.87
2023-03-02T05:58:11.642Z,16.27
2023-03-02T06:00:58.884Z,18.20
2023-03-02T06:03:45.869Z,19.30
2023-03-02T06:06:34.117Z,15.33
2023-03-02T06:09:22.298Z,16.20
2023-03-02T06:12:09.878Z,17.20
2023-03-02T06:14:56.824Z,16.37
2023-03-02T06:17:43.965Z,17.03
2023-03-02T06:20:31.080Z,16.80
2023-03-02T06:23:18.077Z,15.70
2023-03-02T06:26:12.504Z,16.23
2023-03-02T06:28:59.472Z,16.10
2023-03-02T06:31:46.510Z,17.37
2023-03-02T06:34:35.437Z,14.90
2023-03-02T06:37:22.488Z,15.67
2023-03-02T06:40:10.982Z,15.53
2023-03-02T06:43:00.669Z,15.87
2023-03-02T06:45:50.922Z,15.00
2023-03-02T06:48:38.382Z,15.40
2023-03-02T06:51:25.479Z,17.43
2023-03-02T06:54:12.803Z,17.03
2023-03-02T06:56:59.924Z,19.00
2023-03-02T06:59:46.921Z,19.87
2023-03-02T07:02:33.945Z,19.00
2023-03-02T07:05:21.767Z,17.20
2023-03-02T07:08:09.378Z,15.67
2023-03-02T07:10:56.471Z,15.27
2023-03-02T07:13:43.489Z,16.10
2023-03-02T07:16:31.149Z,17.13
2023-03-02T07:19:18.181Z,15.83
2023-03-02T07:22:05.628Z,14.57
2023-03-02T07:24:52.621Z,15.63
2023-03-02T07:27:40.576Z,17.13
2023-03-02T07:30:27.542Z,17.20
2023-03-02T07:33:14.554Z,15.90
2023-03-02T07:36:02.122Z,14.63
2023-03-02T07:38:49.104Z,15.40
2023-03-02T07:41:36.088Z,15.13
2023-03-02T07:44:23.014Z,15.87
2023-03-02T07:47:09.941Z,15.17
2023-03-02T07:49:56.954Z,13.90
2023-03-02T07:52:43.946Z,16.60
2023-03-02T07:55:30.891Z,14.50
2023-03-02T07:58:17.999Z,14.97
2023-03-02T08:01:05.487Z,13.47
2023-03-02T08:03:52.628Z,13.60
2023-03-02T08:06:42.404Z,13.23
2023-03-02T08:09:29.774Z,14.23
2023-03-02T08:12:16.744Z,14.73
2023-03-02T08:15:05.087Z,15.00
2023-03-02T08:17:52.968Z,12.30
2023-03-02T08:20:39.938Z,12.63
2023-03-02T08:23:27.622Z,13.70
2023-03-02T08:26:17.454Z,14.17
2023-03-02T08:29:05.906Z,14.53
2023-03-02T08:31:53.043Z,12.37
2023-03-02T08:34:40.206Z,11.67
2023-03-02T08:37:27.252Z,13.20
2023-03-02T08:40:14.427Z,12.27
2023-03-02T08:43:01.422Z,15.17
2023-03-02T08:45:53.808Z,15.50
2023-03-02T08:48:41.031Z,14.13
2023-03-02T08:51:28.201Z,13.37
2023-03-02T08:54:16.207Z,16.17
2023-03-02T08:57:03.300Z,16.53
2023-03-02T08:59:52.245Z,14.93
2023-03-02T09:02:39.279Z,14.07
2023-03-02T09:05:26.260Z,13.57
2023-03-02T09:08:13.404Z,13.10
2023-03-02T09:11:00.452Z,13.07
2023-03-02T09:13:47.523Z,10.63
2023-03-02T09:16:34.503Z,12.70
2023-03-02T09:19:21.706Z,10.43
2023-03-02T09:22:09.156Z,11.70
2023-03-02T09:24:56.116Z,12.47
2023-03-02T09:27:43.093Z,11.87
2023-03-02T09:30:30.111Z,13.57
2023-03-02T09:33:17.189Z,13.00
2023-03-02T09:36:09.178Z,11.80
2023-03-02T09:38:56.212Z,9.87
2023-03-02T09:42:00.697Z,9.60
2023-03-02T09:45:14.816Z,15.70
2023-03-02T09:48:14.734Z,10.53
2023-03-02T09:51:20.864Z,10.90
2023-03-02T09:54:20.521Z,13.27
2023-03-02T09:57:29.073Z,10.90
2023-03-02T10:00:24.489Z,10.67
2023-03-02T10:03:22.422Z,10.80
2023-03-02T10:06:09.751Z,9.23
2023-03-02T10:08:56.989Z,10.07
2023-03-02T10:12:08.034Z,12.07
2023-03-02T10:15:03.041Z,9.43
2023-03-02T10:18:08.749Z,10.23
2023-03-02T10:21:00.995Z,11.00
2023-03-02T10:24:09.424Z,9.97
2023-03-02T10:27:11.104Z,7.47
2023-03-02T10:30:06.518Z,8.47
2023-03-02T10:32:56.491Z,10.43
2023-03-02T10:35:49.460Z,9.13
2023-03-02T10:38:38.003Z,7.10
2023-03-02T10:41:36.452Z,10.33
2023-03-02T10:44:34.815Z,10.13
2023-03-02T10:47:27.567Z,9.43
2023-03-02T10:50:21.428Z,9.43
2023-03-02T10:53:16.889Z,8.97
2023-03-02T10:56:05.609Z,8.50
2023-03-02T10:58:53.239Z,7.47
2023-03-02T11:01:41.268Z,9.40
2023-03-02T11:04:30.003Z,11.23
2023-03-02T11:07:19.082Z,7.57
2023-03-02T11:10:18.751Z,12.07
2023-03-02T11:13:20.558Z,9.43
2023-03-02T11:16:19.708Z,7.17
2023-03-02T11:19:24.969Z,6.83
2023-03-02T11:22:53.532Z,10.20
2023-03-02T11:25:46.457Z,10.80
2023-03-02T11:28:48.017Z,7.77
2023-03-02T11:31:52.664Z,7.00
2023-03-02T11:34:46.900Z,7.67
2023-03-02T11:37:42.120Z,10.37
2023-03-02T11:40:42.849Z,7.87
2023-03-02T11:43:30.296Z,6.10
2023-03-02T11:46:26.250Z,10.13
2023-03-02T11:49:26.369Z,11.87
2023-03-02T11:52:22.907Z,5.97
2023-03-02T11:55:12.630Z,5.63
2023-03-02T11:58:02.985Z,7.00
2023-03-02T12:00:51.455Z,8.10
2023-03-02T12:03:40.653Z,4.97
2023-03-02T12:06:35.341Z,6.73
2023-03-02T12:09:22.347Z,7.10
2023-03-02T12:12:23.819Z,6.33
2023-03-02T12:15:47.103Z,5.97
2023-03-02T12:18:45.457Z,6.03
2023-03-02T12:21:40.509Z,8.50
2023-03-02T12:24:28.870Z,5.40
2023-03-02T12:27:16.543Z,4.93
2023-03-02T12:30:24.978Z,5.80
2023-03-02T12:33:11.889Z,5.27
2023-03-02T12:36:13.167Z,4.57
2023-03-02T12:39:16.657Z,4.43
2023-03-02T12:42:26.290Z,7.47
2023-03-02T12:45:18.984Z,6.03
2023-03-02T12:48:23.981Z,9.23
2023-03-02T12:51:22.176Z,6.00
2023-03-02T12:54:14.811Z,5.07
2023-03-02T12:57:13.758Z,5.30
2023-03-02T13:00:06.036Z,4.33
2023-03-02T13:02:55.526Z,5.13
2023-03-02T13:05:42.672Z,4.87
2023-03-02T13:08:31.441Z,5.83
2023-03-02T13:11:27.974Z,6.47
2023-03-02T13:14:25.965Z,6.33
2023-03-02T13:17:31.446Z,6.17
2023-03-02T13:20:21.232Z,5.63
2023-03-02T13:23:12.977Z,4.53
2023-03-02T13:26:02.562Z,5.90
2023-03-02T13:29:00.918Z,4.80
2023-03-02T13:31:48.013Z,5.50
2023-03-02T13:34:35.288Z,4.50
2023-03-02T13:37:43.777Z,7.10
2023-03-02T13:40:42.896Z,5.17
2023-03-02T13:43:29.759Z,3.80
2023-03-02T13:46:16.626Z,4.77
2023-03-02T13:49:11.062Z,5.83
2023-03-02T13:52:04.667Z,3.80
2023-03-02T13:54:52.568Z,3.57
2023-03-02T13:57:41.651Z,6.43
2023-03-02T14:00:31.074Z,2.90
2023-03-02T14:03:27.958Z,7.10
2023-03-02T14:06:14.947Z,4.83
2023-03-02T14:09:01.941Z,5.87
2023-03-02T14:11:55.029Z,3.53
2023-03-02T14:14:43.331Z,4.00
2023-03-02T14:17:31.466Z,3.53
2023-03-02T14:20:20.143Z,4.67
2023-03-02T14:23:08.760Z,6.10
2023-03-02T14:25:56.568Z,6.40
2023-03-02T14:28:44.813Z,9.10
2023-03-02T14:31:32.503Z,7.40
2023-03-02T14:34:19.850Z,7.27
2023-03-02T14:37:12.564Z,13.03
2023-03-02T14:39:59.886Z,11.93
2023-03-02T14:42:46.901Z,10.67
2023-03-02T14:45:33.872Z,11.77
2023-03-02T14:48:20.899Z,10.00
2023-03-02T14:51:29.827Z,7.97
2023-03-02T14:54:19.765Z,7.43
2023-03-02T14:57:17.170Z,10.33
2023-03-02T15:00:05.432Z,11.57
2023-03-02T15:02:52.906Z,15.70
2023-03-02T15:05:42.137Z,10.57
2023-03-02T15:08:33.356Z,9.10
2023-03-02T15:11:20.646Z,8.10
2023-03-02T15:14:07.550Z,11.80
2023-03-02T15:16:54.492Z,10.37
2023-03-02T15:19:41.473Z,9.03
2023-03-02T15:22:28.614Z,10.40
2023-03-02T15:25:15.617Z,11.63
2023-03-02T15:28:02.584Z,10.40
2023-03-02T15:30:49.535Z,10.90
2023-03-02T15:33:37.180Z,13.83
2023-03-02T15:36:25.625Z,10.00
2023-03-02T15:39:16.650Z,11.87
2023-03-02T15:42:03.818Z,12.00
2023-03-02T15:44:50.915Z,12.47
2023-03-02T15:47:37.993Z,12.57
2023-03-02T15:50:24.927Z,9.13
2023-03-02T15:53:11.816Z,10.50
2023-03-02T15:55:58.912Z,13.37
2023-03-02T15:58:49.806Z,10.73
2023-03-02T16:01:37.075Z,12.60
2023-03-02T16:04:24.057Z,11.23
2023-03-02T16:07:11.138Z,12.83
2023-03-02T16:09:58.192Z,11.50
2023-03-02T16:12:45.149Z,11.80
2023-03-02T16:15:40.005Z,10.23
2023-03-02T16:18:27.005Z,9.87
2023-03-02T16:21:13.963Z,9.60
2023-03-02T16:24:04.510Z,9.63
2023-03-02T16:26:53.162Z,14.07
2023-03-02T16:29:40.131Z,10.77
2023-03-02T16:32:27.456Z,12.43
2023-03-02T16:35:14.462Z,10.77
2023-03-02T16:38:01.636Z,10.73
2023-03-02T16:40:50.146Z,10.17
2023-03-02T16:43:44.649Z,12.63
2023-03-02T16:46:36.211Z,8.87
2023-03-02T16:49:23.273Z,10.57
2023-03-02T16:52:10.275Z,11.67
2023-03-02T16:54:57.258Z,11.70
2023-03-02T16:57:44.296Z,8.50
2023-03-02T17:00:31.287Z,11.30
2023-03-02T17:03:18.479Z,9.50
2023-03-02T17:06:07.229Z,10.27
2023-03-02T17:08:54.283Z,13.80
2023-03-02T17:11:41.267Z,10.57
2023-03-02T17:14:28.284Z,11.00
2023-03-02T17:17:15.313Z,13.63
2023-03-02T17:20:02.497Z,11.93
2023-03-02T17:22:49.715Z,10.20
2023-03-02T17:25:36.636Z,9.90
2023-03-02T17:28:24.132Z,10.00
2023-03-02T17:31:11.193Z,10.27
2023-03-02T17:33:58.257Z,10.13
2023-03-02T17:36:45.510Z,11.90
2023-03-02T17:39:32.463Z,11.17
2023-03-02T17:42:19.480Z,55.17
2023-03-02T17:45:07.588Z,73.60
2023-03-02T17:47:57.130Z,34.23
2023-03-02T17:50:44.100Z,14.83
2023-03-02T17:53:31.107Z,13.70
2023-03-02T17:56:22.068Z,14.60
2023-03-02T17:59:10.513Z,17.73
2023-03-02T18:01:57.514Z,18.27
2023-03-02T18:04:45.498Z,19.03
2023-03-02T18:07:32.462Z,14.23
2023-03-02T18:10:19.606Z,13.83
2023-03-02T18:13:06.844Z,12.90
2023-03-02T18:15:53.948Z,10.17
2023-03-02T18:18:41.073Z,11.17
2023-03-02T18:21:28.799Z,10.37
2023-03-02T18:24:15.908Z,9.73
2023-03-02T18:27:02.962Z,12.90
2023-03-02T18:29:50.027Z,12.17
2023-03-02T18:32:37.020Z,13.90
2023-03-02T18:35:24.166Z,30.70
2023-03-02T18:38:11.123Z,34.80
2023-03-02T18:41:00.772Z,11.77
2023-03-02T18:43:49.053Z,10.07
2023-03-02T18:46:36.220Z,9.20
2023-03-02T18:49:24.656Z,10.00
2023-03-02T18:52:16.502Z,10.27
2023-03-02T18:55:04.410Z,14.30
2023-03-02T18:57:53.892Z,9.63
2023-03-02T19:00:41.500Z,16.10
2023-03-02T19:03:29.539Z,13.07
2023-03-02T19:06:16.727Z,10.27
2023-03-02T19:09:04.302Z,13.00
2023-03-02T19:11:51.315Z,12.97
2023-03-02T19:14:39.513Z,13.03
2023-03-02T19:17:26.502Z,11.10
2023-03-02T19:20:15.872Z,10.87
2023-03-02T19:23:03.085Z,10.50
2023-03-02T19:25:50.502Z,11.50
2023-03-02T19:28:39.804Z,10.43
2023-03-02T19:31:27.664Z,11.03
2023-03-02T19:34:14.913Z,11.33
2023-03-02T19:37:02.694Z,12.87
2023-03-02T19:39:49.760Z,12.40
2023-03-02T19:42:39.399Z,11.23
2023-03-02T19:45:29.331Z,12.97
2023-03-02T19:48:16.413Z,10.23
2023-03-02T19:51:05.102Z,12.10
2023-03-02T19:53:52.076Z,12.00
2023-03-02T19:56:42.921Z,10.33
2023-03-02T19:59:30.735Z,10.93
2023-03-02T20:02:18.635Z,12.63
2023-03-02T20:05:06.117Z,10.83
2023-03-02T20:07:53.598Z,10.23
2023-03-02T20:10:43.816Z,11.37
2023-03-02T20:13:33.068Z,10.37
2023-03-02T20:16:22.816Z,12.63
2023-03-02T20:19:09.937Z,11.07
2023-03-02T20:21:56.913Z,16.90
2023-03-02T20:24:44.465Z,11.37
2023-03-02T20:27:31.499Z,14.73
2023-03-02T20:30:24.648Z,10.83
2023-03-02T20:33:12.543Z,10.47
2023-03-02T20:36:02.005Z,12.53
2023-03-02T20:38:54.521Z,10.03
2023-03-02T20:41:42.486Z,10.50
2023-03-02T20:44:32.310Z,14.73
2023-03-02T20:47:19.799Z,12.23
2023-03-02T20:50:10.826Z,11.23
2023-03-02T20:52:58.149Z,12.07
2023-03-02T20:55:45.788Z,11.63
2023-03-02T20:58:32.718Z,10.93
2023-03-02T21:01:21.422Z,11.17
2023-03-02T21:04:08.596Z,10.30
2023-03-02T21:06:56.122Z,10.77
2023-03-02T21:09:44.338Z,9.93
2023-03-02T21:12:33.094Z,10.33
2023-03-02T21:15:22.762Z,10.20
2023-03-02T21:18:10.154Z,10.53
2023-03-02T21:20:57.118Z,12.60
2023-03-02T21:23:44.161Z,11.53
2023-03-02T21:26:31.142Z,11.57
2023-03-02T21:29:21.041Z,11.57
2023-03-02T21:32:08.196Z,15.10
2023-03-02T21:34:55.170Z,11.73
2023-03-02T21:37:43.738Z,12.97
2023-03-02T21:40:35.321Z,10.17
2023-03-02T21:43:22.474Z,10.87
2023-03-02T21:46:12.836Z,10.77
2023-03-02T21:49:00.170Z,11.40
2023-03-02T21:51:48.947Z,14.23
2023-03-02T21:54:36.966Z,12.23
2023-03-02T21:57:23.946Z,12.73
2023-03-02T22:00:20.711Z,10.60
2023-03-02T22:03:07.889Z,11.87
2023-03-02T22:05:54.910Z,13.70
2023-03-02T22:08:41.915Z,13.03
2023-03-02T22:11:33.005Z,12.07
2023-03-02T22:14:20.710Z,11.27
2023-03-02T22:17:17.448Z,10.07
2023-03-02T22:20:16.469Z,11.63
2023-03-02T22:23:10.310Z,10.53
2023-03-02T22:26:12.677Z,10.90
2023-03-02T22:29:12.590Z,13.77
2023-03-02T22:32:25.464Z,10.67
2023-03-02T22:35:25.649Z,10.97
2023-03-02T22:38:23.442Z,13.47
2023-03-02T22:41:16.319Z,12.13
2023-03-02T22:44:10.941Z,13.90
2023-03-02T22:46:58.417Z,10.17
2023-03-02T22:49:46.725Z,11.03
2023-03-02T22:52:39.159Z,11.17
2023-03-02T22:55:35.339Z,13.70
2023-03-02T22:58:45.288Z,11.10
2023-03-02T23:01:40.971Z,9.90
2023-03-02T23:04:35.234Z,9.53
2023-03-02T23:07:22.336Z,11.17
2023-03-02T23:10:21.262Z,13.67
2023-03-02T23:13:13.775Z,10.77
2023-03-02T23:16:01.326Z,10.53
2023-03-02T23:18:49.229Z,11.17
2023-03-02T23:21:44.309Z,11.27
2023-03-02T23:24:31.313Z,14.03
2023-03-02T23:27:18.221Z,11.63
2023-03-02T23:30:06.119Z,11.40
2023-03-02T23:32:53.151Z,11.37
2023-03-02T23:35:41.906Z,11.77
2023-03-02T23:38:28.919Z,11.10
2023-03-02T23:41:16.976Z,10.57
2023-03-02T23:44:05.537Z,10.43
2023-03-02T23:46:52.619Z,11.73
2023-03-02T23:49:39.601Z,10.93
2023-03-02T23:52:26.562Z,14.90
2023-03-02T23:55:13.509Z,10.50
2023-03-02T23:58:00.858Z,10.80
